Houn Maru — JG5489 — position and weather

sailwx.info

Track history (hours):
 
Tides and Currents Weather Stations Pressure Air Temp Water Temp Dewpoint Dewpoint Depression Visibility Wind Speed Wind Dir Waves Ship Positions

Houn Maru

Last reported at 2014-Oct-22 06:33 UTC. Time now 2014-Oct-23 00:46 UTC.
Position N 34°37' E 135°01'.

Length 91 m; draft 4.5 m.

Type: Tanker. MMSI: 431101172.

Date/timePositionNaut miles runAvg speedWind from/ knotsBaromVisibWave heightAir tempDewpointWater temp
2014-Oct-22 06:33N 34°37' E 135°01'1010.5
2014-Oct-22 05:33N 34°29' E 135°08'6 1.2
2014-Oct-22 00:12N 34°25' E 135°14'2 2.7
2014-Oct-21 23:22N 34°23' E 135°13'0 0.1
2014-Oct-21 22:31N 34°23' E 135°13'0 0.1
2014-Oct-21 21:31N 34°23' E 135°13'0 0.1
2014-Oct-21 20:31N 34°23' E 135°13'0 0.0
2014-Oct-21 19:25N 34°23' E 135°13'0 0.1
2014-Oct-21 18:31N 34°23' E 135°13'0 0.1
2014-Oct-21 17:34N 34°23' E 135°13'1111.2
2014-Oct-21 16:33N 34°33' E 135°05'16 0.5
2014-Oct-20 09:11N 34°34' E 134°46'915.1
2014-Oct-20 08:33N 34°37' E 134°57'1212.1
2014-Oct-20 07:33N 34°30' E 135°09'6 6.5
2014-Oct-20 06:33N 34°25' E 135°14'2 0.4
2014-Oct-20 01:34N 34°23' E 135°12'9 9.4
2014-Oct-20 00:33N 34°31' E 135°19'0 0.4
2014-Oct-19 23:32N 34°32' E 135°19'0 0.0
2014-Oct-19 22:14N 34°32' E 135°19'0 0.0
2014-Oct-19 21:08N 34°32' E 135°19'0 0.0
2014-Oct-19 20:32N 34°32' E 135°19'0 0.0
2014-Oct-19 19:32N 34°32' E 135°19'0 0.0
2014-Oct-19 18:32N 34°32' E 135°19'0 0.1
2014-Oct-19 17:32N 34°32' E 135°19'0 0.0
2014-Oct-19 16:32N 34°32' E 135°19'0 0.0
2014-Oct-19 15:32N 34°32' E 135°19'0 0.0
2014-Oct-19 14:32N 34°32' E 135°19'0 0.0
2014-Oct-19 13:32N 34°32' E 135°19'0 0.0
2014-Oct-19 12:32N 34°32' E 135°19'0 0.0
2014-Oct-19 11:32N 34°32' E 135°19'0 0.0
2014-Oct-19 10:20N 34°32' E 135°19'0 0.1
2014-Oct-19 09:32N 34°32' E 135°19'0 0.0
2014-Oct-19 08:20N 34°32' E 135°19'0 0.0
2014-Oct-19 07:32N 34°32' E 135°19'0 0.0
2014-Oct-19 06:32N 34°32' E 135°19'0 0.0
2014-Oct-19 05:32N 34°32' E 135°19'0 0.0
2014-Oct-19 04:14N 34°32' E 135°19'0 0.0
2014-Oct-19 02:32N 34°32' E 135°19'0 0.0
2014-Oct-19 01:26N 34°32' E 135°19'0 0.0
2014-Oct-19 00:14N 34°32' E 135°19'0 0.0
2014-Oct-18 23:32N 34°32' E 135°19'0 0.0
2014-Oct-18 22:26N 34°32' E 135°19'0 0.0
2014-Oct-18 21:26N 34°32' E 135°19'0 0.0
2014-Oct-18 20:32N 34°32' E 135°19'0 0.0
2014-Oct-18 19:20N 34°32' E 135°19'0 0.0
2014-Oct-18 18:32N 34°32' E 135°19'0 0.0
2014-Oct-18 17:32N 34°32' E 135°19'0 0.0
2014-Oct-18 16:32N 34°32' E 135°19'0 0.0
2014-Oct-18 15:32N 34°32' E 135°19'0 0.0
2014-Oct-18 14:32N 34°32' E 135°19'7 7.0
2014-Oct-18 13:33N 34°34' E 135°11'1212.0
2014-Oct-18 12:33N 34°36' E 134°57'5 0.2
2014-Oct-17 06:06N 34°35' E 134°50'814.0
2014-Oct-17 05:33N 34°38' E 134°59'1312.5
2014-Oct-17 04:33N 34°28' E 135°09'5 3.9
2014-Oct-17 03:11N 34°25' E 135°14'0 0.0
2014-Oct-17 02:23N 34°25' E 135°14'0 0.0
2014-Oct-17 01:23N 34°25' E 135°14'0 0.0
2014-Oct-17 00:13N 34°25' E 135°14'2 0.6
2014-Oct-16 20:13N 34°23' E 135°13'0 0.0
2014-Oct-16 18:31N 34°23' E 135°13'0 0.0
2014-Oct-16 17:25N 34°23' E 135°13'0 0.0
2014-Oct-16 16:31N 34°23' E 135°13'0 0.0
2014-Oct-16 15:31N 34°23' E 135°13'0 0.0
2014-Oct-16 14:25N 34°23' E 135°13'4 4.8
2014-Oct-16 13:34N 34°26' E 135°09'1312.9
2014-Oct-16 12:33N 34°37' E 135°01'6 0.2
2014-Oct-15 08:27N 34°36' E 134°54'1010.9
2014-Oct-15 07:33N 34°35' E 135°05'1212.3
2014-Oct-15 06:33N 34°24' E 135°12'2 0.4
2014-Oct-15 01:33N 34°25' E 135°14'2 1.3
2014-Oct-15 00:12N 34°23' E 135°13'0 0.0
2014-Oct-14 23:24N 34°23' E 135°13'0 0.0
2014-Oct-14 22:30N 34°23' E 135°13'0 0.0
2014-Oct-14 21:30N 34°23' E 135°13'0 0.0
2014-Oct-14 20:30N 34°23' E 135°13'0 0.0
2014-Oct-14 19:30N 34°23' E 135°13'0 0.0
2014-Oct-14 18:30N 34°23' E 135°13'0 0.0
2014-Oct-14 17:30N 34°23' E 135°13'0 0.0
2014-Oct-14 16:30N 34°23' E 135°13'0 0.0
2014-Oct-14 15:33N 34°23' E 135°13'0 0.0
2014-Oct-14 14:33N 34°23' E 135°13'0 0.1
2014-Oct-14 13:33N 34°23' E 135°13'1110.5
2014-Oct-14 12:33N 34°32' E 135°05'  
Track history (hours):
 
Tides and Currents Weather Stations Pressure Air Temp Water Temp Dewpoint Dewpoint Depression Visibility Wind Speed Wind Dir Waves Ship Positions

Houn Maru

Last reported at 2014-Oct-22 06:33 UTC. Time now 2014-Oct-23 00:46 UTC.
Position N 34°37' E 135°01'.

Length 91 m; draft 4.5 m.

Type: Tanker. MMSI: 431101172.

Date/timePositionNaut miles runAvg speedWind from/ knotsBaromVisibWave heightAir tempDewpointWater temp
2014-Oct-22 06:33N 34°37' E 135°01'1010.5
2014-Oct-22 05:33N 34°29' E 135°08'6 1.2
2014-Oct-22 00:12N 34°25' E 135°14'2 2.7
2014-Oct-21 23:22N 34°23' E 135°13'0 0.1
2014-Oct-21 22:31N 34°23' E 135°13'0 0.1
2014-Oct-21 21:31N 34°23' E 135°13'0 0.1
2014-Oct-21 20:31N 34°23' E 135°13'0 0.0
2014-Oct-21 19:25N 34°23' E 135°13'0 0.1
2014-Oct-21 18:31N 34°23' E 135°13'0 0.1
2014-Oct-21 17:34N 34°23' E 135°13'1111.2
2014-Oct-21 16:33N 34°33' E 135°05'16 0.5
2014-Oct-20 09:11N 34°34' E 134°46'915.1
2014-Oct-20 08:33N 34°37' E 134°57'1212.1
2014-Oct-20 07:33N 34°30' E 135°09'6 6.5
2014-Oct-20 06:33N 34°25' E 135°14'2 0.4
2014-Oct-20 01:34N 34°23' E 135°12'9 9.4
2014-Oct-20 00:33N 34°31' E 135°19'0 0.4
2014-Oct-19 23:32N 34°32' E 135°19'0 0.0
2014-Oct-19 22:14N 34°32' E 135°19'0 0.0
2014-Oct-19 21:08N 34°32' E 135°19'0 0.0
2014-Oct-19 20:32N 34°32' E 135°19'0 0.0
2014-Oct-19 19:32N 34°32' E 135°19'0 0.0
2014-Oct-19 18:32N 34°32' E 135°19'0 0.1
2014-Oct-19 17:32N 34°32' E 135°19'0 0.0
2014-Oct-19 16:32N 34°32' E 135°19'0 0.0
2014-Oct-19 15:32N 34°32' E 135°19'0 0.0
2014-Oct-19 14:32N 34°32' E 135°19'0 0.0
2014-Oct-19 13:32N 34°32' E 135°19'0 0.0
2014-Oct-19 12:32N 34°32' E 135°19'0 0.0
2014-Oct-19 11:32N 34°32' E 135°19'0 0.0
2014-Oct-19 10:20N 34°32' E 135°19'0 0.1
2014-Oct-19 09:32N 34°32' E 135°19'0 0.0
2014-Oct-19 08:20N 34°32' E 135°19'0 0.0
2014-Oct-19 07:32N 34°32' E 135°19'0 0.0
2014-Oct-19 06:32N 34°32' E 135°19'0 0.0
2014-Oct-19 05:32N 34°32' E 135°19'0 0.0
2014-Oct-19 04:14N 34°32' E 135°19'0 0.0
2014-Oct-19 02:32N 34°32' E 135°19'0 0.0
2014-Oct-19 01:26N 34°32' E 135°19'0 0.0
2014-Oct-19 00:14N 34°32' E 135°19'0 0.0
2014-Oct-18 23:32N 34°32' E 135°19'0 0.0
2014-Oct-18 22:26N 34°32' E 135°19'0 0.0
2014-Oct-18 21:26N 34°32' E 135°19'0 0.0
2014-Oct-18 20:32N 34°32' E 135°19'0 0.0
2014-Oct-18 19:20N 34°32' E 135°19'0 0.0
2014-Oct-18 18:32N 34°32' E 135°19'0 0.0
2014-Oct-18 17:32N 34°32' E 135°19'0 0.0
2014-Oct-18 16:32N 34°32' E 135°19'0 0.0
2014-Oct-18 15:32N 34°32' E 135°19'0 0.0
2014-Oct-18 14:32N 34°32' E 135°19'7 7.0
2014-Oct-18 13:33N 34°34' E 135°11'1212.0
2014-Oct-18 12:33N 34°36' E 134°57'5 0.2
2014-Oct-17 06:06N 34°35' E 134°50'814.0
2014-Oct-17 05:33N 34°38' E 134°59'1312.5
2014-Oct-17 04:33N 34°28' E 135°09'5 3.9
2014-Oct-17 03:11N 34°25' E 135°14'0 0.0
2014-Oct-17 02:23N 34°25' E 135°14'0 0.0
2014-Oct-17 01:23N 34°25' E 135°14'0 0.0
2014-Oct-17 00:13N 34°25' E 135°14'2 0.6
2014-Oct-16 20:13N 34°23' E 135°13'0 0.0
2014-Oct-16 18:31N 34°23' E 135°13'0 0.0
2014-Oct-16 17:25N 34°23' E 135°13'0 0.0
2014-Oct-16 16:31N 34°23' E 135°13'0 0.0
2014-Oct-16 15:31N 34°23' E 135°13'0 0.0
2014-Oct-16 14:25N 34°23' E 135°13'4 4.8
2014-Oct-16 13:34N 34°26' E 135°09'1312.9
2014-Oct-16 12:33N 34°37' E 135°01'6 0.2
2014-Oct-15 08:27N 34°36' E 134°54'1010.9
2014-Oct-15 07:33N 34°35' E 135°05'1212.3
2014-Oct-15 06:33N 34°24' E 135°12'2 0.4
2014-Oct-15 01:33N 34°25' E 135°14'2 1.3
2014-Oct-15 00:12N 34°23' E 135°13'0 0.0
2014-Oct-14 23:24N 34°23' E 135°13'0 0.0
2014-Oct-14 22:30N 34°23' E 135°13'0 0.0
2014-Oct-14 21:30N 34°23' E 135°13'0 0.0
2014-Oct-14 20:30N 34°23' E 135°13'0 0.0
2014-Oct-14 19:30N 34°23' E 135°13'0 0.0
2014-Oct-14 18:30N 34°23' E 135°13'0 0.0
2014-Oct-14 17:30N 34°23' E 135°13'0 0.0
2014-Oct-14 16:30N 34°23' E 135°13'0 0.0
2014-Oct-14 15:33N 34°23' E 135°13'0 0.0
2014-Oct-14 14:33N 34°23' E 135°13'0 0.1
2014-Oct-14 13:33N 34°23' E 135°13'1110.5
2014-Oct-14 12:33N 34°32' E 135°05'  

Dump ship's entire track history